Time;durP1;ratioP1;P1;durP2;ratioP2;P2;SDS_P1;SDS_P2;PMS_P1;PMS_P2;Temp;Humidity;BMP_temperature;BMP_pressure;BME280_temperature;BME280_humidity;BME280_pressure;Samples;Min_cycle;Max_cycle;Signal;HPM_P1;HPM_P2
2022/11/21 06:46:44;;;;;;;29.18;16.05;;;;;;;-0.91;100.00;97323.18;1827810;78;20872;-67
2022/11/21 06:49:11;;;;;;;42.90;21.40;;;;;;;-0.84;100.00;97321.22;1828259;78;21383;-67
2022/11/21 06:51:38;;;;;;;34.90;19.05;;;;;;;-0.76;100.00;97316.41;1823503;77;21062;-66
2022/11/21 06:54:05;;;;;;;23.67;13.48;;;;;;;-0.67;100.00;97319.45;1830540;78;20903;-68
2022/11/21 06:56:32;;;;;;;18.52;12.43;;;;;;;-0.61;100.00;97326.39;1822975;77;20927;-71
2022/11/21 06:58:59;;;;;;;18.20;12.40;;;;;;;-0.52;100.00;97345.24;1806290;78;20968;-68
2022/11/21 07:01:25;;;;;;;17.77;12.43;;;;;;;-0.41;100.00;97342.56;1824266;77;21251;-65
2022/11/21 07:03:53;;;;;;;15.95;11.25;;;;;;;-0.26;100.00;97340.17;1804345;78;20923;-68
2022/11/21 07:06:20;;;;;;;13.72;9.83;;;;;;;-0.11;100.00;97346.22;1821119;78;20980;-68
2022/11/21 07:08:47;;;;;;;16.65;10.68;;;;;;;-0.09;100.00;97339.69;1821325;78;21062;-67
2022/11/21 07:11:13;;;;;;;19.85;13.32;;;;;;;-0.02;100.00;97342.97;1823349;78;21043;-66
2022/11/21 07:13:42;;;;;;;13.53;9.43;;;;;;;0.06;100.00;97353.63;1824079;78;20984;-67
2022/11/21 07:16:13;;;;;;;15.05;10.18;;;;;;;0.10;100.00;97340.77;1824437;78;20967;-65
2022/11/21 07:18:41;;;;;;;17.42;11.50;;;;;;;0.11;100.00;97335.28;1826914;78;20982;-66
2022/11/21 07:21:08;;;;;;;14.00;11.33;;;;;;;0.09;100.00;97340.50;1825488;78;21014;-66
2022/11/21 07:23:35;;;;;;;15.58;11.30;;;;;;;0.04;100.00;97341.73;1844196;77;21052;-66
2022/11/21 07:26:05;;;;;;;12.50;9.58;;;;;;;0.00;100.00;97347.47;1789396;80;22583;-66
2022/11/21 07:28:33;;;;;;;14.20;10.93;;;;;;;-0.03;100.00;97345.84;1778494;80;21050;-65
2022/11/21 07:31:00;;;;;;;14.73;11.45;;;;;;;0.00;100.00;97339.57;1778544;78;20951;-64
2022/11/21 07:33:27;;;;;;;16.32;11.70;;;;;;;0.06;100.00;97335.70;1782653;79;21066;-64
2022/11/21 07:35:57;;;;;;;12.78;9.08;;;;;;;0.15;100.00;97343.48;1789582;80;21015;-65
2022/11/21 07:38:24;;;;;;;13.43;9.45;;;;;;;0.20;100.00;97339.62;1776299;80;21233;-64
2022/11/21 07:40:51;;;;;;;12.70;9.03;;;;;;;0.18;100.00;97346.45;1782317;80;20966;-65
2022/11/21 07:43:18;;;;;;;14.00;9.03;;;;;;;0.13;100.00;97341.61;1767101;80;21567;-65
2022/11/21 07:45:45;;;;;;;18.50;10.82;;;;;;;0.12;100.00;97351.89;1770535;80;20977;-65
2022/11/21 07:48:11;;;;;;;16.90;12.03;;;;;;;0.17;100.00;97347.48;1763961;79;20963;-65
2022/11/21 07:50:38;;;;;;;15.72;11.25;;;;;;;0.24;100.00;97346.80;1766768;80;21419;-61
2022/11/21 07:53:08;;;;;;;14.85;9.68;;;;;;;0.28;100.00;97343.19;1771974;80;21011;-66
2022/11/21 07:55:34;;;;;;;12.37;9.70;;;;;;;0.30;100.00;97339.27;1765334;80;20957;-68
2022/11/21 07:58:04;;;;;;;9.55;6.92;;;;;;;0.31;100.00;97338.22;1768189;80;21032;-68
2022/11/21 08:00:31;;;;;;;11.30;8.73;;;;;;;0.32;100.00;97341.66;1813451;78;20922;-68
2022/11/21 08:02:58;;;;;;;22.58;15.70;;;;;;;0.36;100.00;97339.61;1765115;80;21189;-69
2022/11/21 08:05:24;;;;;;;16.70;11.48;;;;;;;0.33;100.00;97337.99;1749809;81;21003;-69
2022/11/21 08:07:52;;;;;;;17.27;11.33;;;;;;;0.31;100.00;97338.22;1814163;78;20954;-67
2022/11/21 08:10:19;;;;;;;15.28;9.98;;;;;;;0.36;100.00;97348.03;1811761;78;21056;-68
2022/11/21 08:12:46;;;;;;;12.33;8.73;;;;;;;0.40;100.00;97343.89;1820137;77;21013;-66
2022/11/21 08:15:14;;;;;;;13.72;10.15;;;;;;;0.42;100.00;97332.59;1766278;80;22087;-63
2022/11/21 08:17:41;;;;;;;13.93;9.33;;;;;;;0.46;100.00;97328.42;1759749;80;20905;-68
2022/11/21 08:20:14;;;;;;;21.27;15.05;;;;;;;0.49;100.00;97322.17;1772114;79;21446;-67
2022/11/21 08:22:44;;;;;;;21.33;14.98;;;;;;;0.55;100.00;97324.34;1767827;80;20955;-67
2022/11/21 08:25:10;;;;;;;14.95;11.15;;;;;;;0.56;100.00;97321.99;1773498;79;20971;-67
2022/11/21 08:27:38;;;;;;;15.55;10.20;;;;;;;0.57;100.00;97330.16;1753651;80;21145;-69
2022/11/21 08:30:10;;;;;;;13.32;9.28;;;;;;;0.57;100.00;97328.84;1772415;79;20977;-68
2022/11/21 08:32:38;;;;;;;13.32;8.58;;;;;;;0.57;100.00;97332.28;1769801;79;21030;-67
2022/11/21 08:35:06;;;;;;;12.85;9.45;;;;;;;0.61;100.00;97335.24;1770441;80;21043;-67
2022/11/21 08:37:34;;;;;;;11.38;8.13;;;;;;;0.61;100.00;97340.52;1769570;79;21047;-67
2022/11/21 08:40:01;;;;;;;10.60;7.65;;;;;;;0.52;100.00;97334.03;1766379;80;21178;-68
2022/11/21 08:42:29;;;;;;;11.20;8.18;;;;;;;0.44;100.00;97331.31;1775377;80;21032;-67
2022/11/21 08:44:55;;;;;;;12.85;8.25;;;;;;;0.46;100.00;97327.11;1762391;80;21410;-67
2022/11/21 08:47:22;;;;;;;11.97;8.00;;;;;;;0.54;100.00;97325.39;1771826;79;20914;-68
2022/11/21 08:49:49;;;;;;;10.78;8.35;;;;;;;0.66;100.00;97332.66;1767938;80;21085;-68
2022/11/21 08:52:17;;;;;;;14.75;8.43;;;;;;;0.75;100.00;97331.22;1837417;77;21193;-67
2022/11/21 08:54:44;;;;;;;13.18;8.25;;;;;;;0.83;100.00;97340.52;1774564;79;21022;-66
2022/11/21 08:57:11;;;;;;;12.95;9.88;;;;;;;0.83;100.00;97329.47;1796611;79;21083;-68
2022/11/21 08:59:38;;;;;;;11.15;8.70;;;;;;;0.85;100.00;97336.61;1800074;79;20948;-66
2022/11/21 09:02:06;;;;;;;11.43;8.73;;;;;;;0.89;100.00;97341.69;1817229;78;20948;-68
2022/11/21 09:04:32;;;;;;;12.13;9.45;;;;;;;0.90;100.00;97344.59;1818226;78;21773;-67
2022/11/21 09:07:00;;;;;;;12.68;9.33;;;;;;;0.90;100.00;97339.31;1814759;77;21025;-67
2022/11/21 09:09:27;;;;;;;13.08;9.40;;;;;;;0.89;100.00;97335.09;1822701;78;20920;-65
2022/11/21 09:11:55;;;;;;;12.37;8.28;;;;;;;0.86;100.00;97332.14;1812622;78;20906;-65
2022/11/21 09:19:59;;;;;;;12.35;8.73;;;;;;;0.77;100.00;97327.02;1822407;78;21015;-65
2022/11/21 09:22:26;;;;;;;11.40;9.18;;;;;;;0.78;100.00;97320.16;1815748;77;21497;-65
2022/11/21 09:24:53;;;;;;;8.90;7.20;;;;;;;0.82;100.00;97319.98;1830051;77;20927;-67
2022/11/21 09:27:21;;;;;;;10.93;7.65;;;;;;;0.88;100.00;97317.67;1773673;80;21060;-64
2022/11/21 09:29:47;;;;;;;12.50;8.58;;;;;;;0.94;100.00;97315.91;1815821;78;21101;-66
2022/11/21 09:32:15;;;;;;;14.05;9.68;;;;;;;0.96;100.00;97309.34;1824575;78;21288;-69
2022/11/21 09:34:41;;;;;;;13.13;9.60;;;;;;;0.97;99.75;97308.28;1819482;77;21391;-64
2022/11/21 09:37:08;;;;;;;12.45;8.38;;;;;;;0.94;99.59;97306.16;1789906;78;21022;-64
2022/11/21 09:39:34;;;;;;;8.68;7.22;;;;;;;0.89;99.45;97300.82;1814709;77;21025;-66
2022/11/21 09:42:16;;;;;;;18.25;10.70;;;;;;;0.82;99.44;97300.20;1827315;77;21106;-65
2022/11/21 09:45:08;;;;;;;13.75;8.70;;;;;;;0.77;99.61;97291.42;1805127;78;21032;-66
2022/11/21 09:47:49;;;;;;;15.85;9.20;;;;;;;0.74;99.60;97284.80;1796387;78;21037;-67
2022/11/21 09:50:32;;;;;;;19.37;11.40;;;;;;;0.70;99.68;97278.43;1797630;78;21002;-71
2022/11/21 09:53:15;;;;;;;12.45;8.58;;;;;;;0.78;100.00;97277.98;1803540;78;21507;-72
2022/11/21 09:55:46;;;;;;;11.10;7.20;;;;;;;0.89;100.00;97271.81;1807560;78;20987;-72
2022/11/21 09:58:40;;;;;;;8.80;6.50;;;;;;;0.98;99.85;97272.98;1807838;78;20950;-64
2022/11/21 10:01:14;;;;;;;9.60;6.92;;;;;;;1.03;99.57;97264.32;1797639;78;20957;-64
2022/11/21 10:03:47;;;;;;;9.65;7.33;;;;;;;1.10;99.43;97276.28;1810606;78;20931;-63
2022/11/21 10:06:21;;;;;;;13.22;8.43;;;;;;;1.08;99.09;97263.87;1804438;78;21022;-64
2022/11/21 10:09:13;;;;;;;10.10;8.03;;;;;;;1.11;99.01;97262.03;1799496;78;21197;-64
2022/11/21 10:14:53;;;;;;;;;;;;;;;1.21;98.72;97251.59;1802238;78;20964;-65
2022/11/21 10:17:34;;;;;;;8.00;5.97;;;;;;;1.17;98.28;97247.88;1803076;78;20082;-63
2022/11/21 10:20:10;;;;;;;8.38;6.33;;;;;;;1.08;98.15;97241.45;1791069;78;21119;-65
2022/11/21 10:22:53;;;;;;;;;;;;;;;1.12;98.35;97240.41;1796539;78;21117;-64
2022/11/21 10:25:27;;;;;;;8.88;6.80;;;;;;;1.17;98.38;97232.05;1804845;78;20433;-65
2022/11/21 10:28:01;;;;;;;10.90;7.12;;;;;;;1.22;98.20;97224.19;1815349;78;20956;-65
2022/11/21 10:30:28;;;;;;;8.80;6.20;;;;;;;1.25;98.01;97215.75;1786718;78;20968;-64
2022/11/21 10:32:57;;;;;;;10.98;8.05;;;;;;;1.27;97.90;97207.06;1769572;78;21156;-65
2022/11/21 10:35:48;;;;;;;9.60;7.53;;;;;;;1.29;97.76;97211.59;1803015;78;21099;-63
2022/11/21 10:38:23;;;;;;;10.53;8.48;;;;;;;1.29;97.53;97206.31;1798398;79;21053;-66
2022/11/21 10:41:01;;;;;;;;;;;;;;;1.24;97.38;97193.58;1806592;78;21048;-66
2022/11/21 10:46:29;;;;;;;12.40;9.25;;;;;;;1.16;97.42;97194.83;1813242;78;21070;-65
2022/11/21 10:48:59;;;;;;;12.75;10.13;;;;;;;1.13;97.49;97188.72;1813813;79;21099;-65
2022/11/21 10:51:47;;;;;;;15.70;10.68;;;;;;;1.09;97.39;97178.41;1819564;77;20908;-65
2022/11/21 10:54:31;;;;;;;14.73;10.40;;;;;;;1.06;97.56;97170.98;1823814;77;20895;-65
2022/11/21 10:57:14;;;;;;;15.75;11.22;;;;;;;1.06;97.60;97164.39;1811242;78;21264;-65
2022/11/21 10:59:40;;;;;;;12.50;8.78;;;;;;;1.03;97.46;97160.95;1823934;78;21043;-65
2022/11/21 11:02:19;;;;;;;13.30;9.73;;;;;;;0.95;97.24;97150.84;1750423;80;21790;-65
2022/11/21 11:04:45;;;;;;;13.13;9.48;;;;;;;0.86;97.30;97148.38;1820062;78;21095;-65
2022/11/21 11:07:23;;;;;;;12.60;9.83;;;;;;;0.76;97.40;97150.91;1814183;77;21026;-68
2022/11/21 11:09:51;;;;;;;12.35;10.10;;;;;;;0.65;97.54;97139.48;1810620;78;21105;-63
2022/11/21 11:12:24;;;;;;;12.00;9.28;;;;;;;0.64;98.02;97142.34;1819078;78;21114;-63
2022/11/21 11:14:53;;;;;;;13.60;8.93;;;;;;;0.64;98.14;97135.75;1747515;81;21904;-63
2022/11/21 11:17:29;;;;;;;10.70;8.05;;;;;;;0.60;98.17;97125.44;1804012;78;21332;-65
2022/11/21 11:20:05;;;;;;;11.28;7.35;;;;;;;0.57;98.42;97125.92;1805065;77;20916;-65
2022/11/21 11:22:33;;;;;;;10.65;7.85;;;;;;;0.56;98.52;97125.16;1803464;78;20917;-63
2022/11/21 11:25:02;;;;;;;11.60;8.35;;;;;;;0.56;98.65;97121.72;1777225;80;21125;-64
2022/11/21 11:27:30;;;;;;;11.03;7.92;;;;;;;0.58;98.85;97119.63;1783022;77;20960;-63
2022/11/21 11:29:56;;;;;;;14.58;9.25;;;;;;;0.65;98.98;97109.17;1758682;79;20962;-63
2022/11/21 11:32:23;;;;;;;12.55;9.13;;;;;;;0.68;98.89;97106.56;1746763;78;20996;-64
2022/11/21 11:34:59;;;;;;;13.68;8.80;;;;;;;0.67;98.91;97104.95;1819605;78;21371;-63
2022/11/21 11:37:41;;;;;;;13.53;7.92;;;;;;;0.67;98.96;97103.64;1820081;78;21029;-63
2022/11/21 11:40:23;;;;;;;9.78;7.62;;;;;;;0.63;98.95;97103.35;1793302;78;21246;-63
2022/11/21 11:52:35;;;;;;;11.60;7.85;;;;;;;0.65;98.93;97089.91;1821096;77;20931;-67
2022/11/21 11:55:10;;;;;;;9.70;7.62;;;;;;;0.61;99.11;97079.61;1824452;77;21326;-65
2022/11/21 11:57:36;;;;;;;12.45;8.50;;;;;;;0.63;99.37;97082.27;1819633;77;21044;-63
2022/11/21 12:00:34;;;;;;;15.30;9.73;;;;;;;0.71;99.60;97081.55;1817563;77;21427;-64
2022/11/21 12:03:24;;;;;;;10.85;7.40;;;;;;;0.78;99.56;97072.91;1815848;77;20895;-65
2022/11/21 12:06:06;;;;;;;10.35;7.00;;;;;;;0.78;99.21;97076.33;1774387;79;21058;-66
2022/11/21 12:08:54;;;;;;;11.43;9.10;;;;;;;0.68;99.00;97075.70;1811708;77;21011;-63
2022/11/21 12:18:20;;;;;;;14.78;9.53;;;;;;;0.62;99.46;97068.00;1818415;77;21023;-65
2022/11/21 12:21:05;;;;;;;14.55;9.30;;;;;;;0.61;99.62;97071.70;1808140;78;21052;-66
2022/11/21 12:23:42;;;;;;;12.40;9.58;;;;;;;0.63;99.78;97072.24;1800484;78;21103;-65
2022/11/21 12:26:21;;;;;;;10.63;7.92;;;;;;;0.64;99.81;97068.55;1797489;78;20968;-63
2022/11/21 12:38:44;;;;;;;10.63;7.37;;;;;;;0.54;99.67;97068.47;1812101;77;21455;-63
2022/11/21 12:44:19;;;;;;;11.53;8.85;;;;;;;0.46;99.89;97070.22;1816206;78;21459;-63
2022/11/21 12:47:11;;;;;;;15.83;10.15;;;;;;;0.47;100.00;97069.19;1752556;80;21075;-64
2022/11/21 12:55:54;;;;;;;12.53;7.92;;;;;;;0.63;100.00;97061.70;1778977;80;20900;-63
2022/11/21 12:58:37;;;;;;;10.68;7.28;;;;;;;0.63;100.00;97059.06;1758232;81;21104;-63
2022/11/21 13:01:18;;;;;;;12.45;8.45;;;;;;;0.65;99.92;97062.24;1763455;81;21076;-63
2022/11/21 13:04:02;;;;;;;11.73;8.85;;;;;;;0.64;99.67;97056.69;1755296;80;21055;-64
2022/11/21 13:06:32;;;;;;;8.78;7.45;;;;;;;0.61;99.46;97055.89;1759832;80;21190;-69
2022/11/21 13:09:01;;;;;;;10.78;7.30;;;;;;;0.58;99.56;97056.38;1769537;80;21567;-64
2022/11/21 13:11:57;;;;;;;10.35;6.10;;;;;;;0.57;99.56;97048.19;1770432;80;21140;-66
2022/11/21 13:14:50;;;;;;;10.28;7.47;;;;;;;0.55;99.58;97051.08;1772893;80;21008;-61
2022/11/21 13:17:35;;;;;;;10.28;7.95;;;;;;;0.52;99.46;97051.57;1765308;80;21036;-62
2022/11/21 13:20:31;;;;;;;;;;;;;;;0.53;99.57;97049.73;1779207;79;21016;-62
2022/11/21 13:22:59;;;;;;;10.55;8.60;;;;;;;0.55;99.51;97046.33;1768524;80;20168;-63
2022/11/21 13:25:34;;;;;;;12.43;9.18;;;;;;;0.52;99.35;97049.45;1770566;80;21102;-63
2022/11/21 13:28:23;;;;;;;14.43;9.05;;;;;;;0.46;99.46;97051.26;1751768;82;20900;-62
2022/11/21 13:30:54;;;;;;;13.90;9.28;;;;;;;0.48;99.69;97048.36;1772678;80;20922;-62
2022/11/21 13:33:45;;;;;;;14.95;10.15;;;;;;;0.47;99.60;97046.80;1752015;82;21081;-66
2022/11/21 13:36:29;;;;;;;10.45;9.00;;;;;;;0.43;99.62;97046.48;1765666;80;20944;-61
2022/11/21 13:39:02;;;;;;;15.32;9.00;;;;;;;0.44;99.72;97048.59;1731471;82;21404;-62
2022/11/21 13:44:40;;;;;;;12.65;9.65;;;;;;;0.43;99.87;97046.48;1776536;80;21510;-63
2022/11/21 13:47:40;;;;;;;14.45;10.28;;;;;;;0.41;99.90;97060.42;1779947;80;21230;-63
2022/11/21 13:50:38;;;;;;;18.02;10.48;;;;;;;0.38;99.88;97058.80;1763727;80;21521;-62
2022/11/21 13:53:38;;;;;;;12.40;10.53;;;;;;;0.37;100.00;97062.48;1775966;80;21018;-63
2022/11/21 13:56:16;;;;;;;16.32;11.48;;;;;;;0.37;100.00;97059.86;1777452;80;21098;-63
2022/11/21 13:59:09;;;;;;;16.97;11.88;;;;;;;0.34;100.00;97057.70;1747219;80;21081;-63
2022/11/21 14:02:15;;;;;;;15.15;11.22;;;;;;;0.37;100.00;97055.39;1778414;80;21231;-63
2022/11/21 14:05:29;;;;;;;16.10;11.08;;;;;;;0.41;100.00;97060.42;1750980;80;21505;-64
2022/11/21 14:08:21;;;;;;;13.58;10.88;;;;;;;0.45;100.00;97059.39;1779629;80;21038;-64
2022/11/21 14:10:50;;;;;;;14.87;11.18;;;;;;;0.43;100.00;97061.48;1779800;80;20979;-63
2022/11/21 14:13:36;;;;;;;14.40;11.28;;;;;;;0.40;100.00;97063.31;1779825;80;20983;-63
2022/11/21 14:16:35;;;;;;;15.68;10.85;;;;;;;0.39;100.00;97065.66;1779872;80;21125;-63
2022/11/21 14:19:19;;;;;;;16.52;11.33;;;;;;;0.36;100.00;97066.16;1779775;80;20920;-63
